createdAt,value
2018-02-03T00:00:48.516Z,6.70
2018-02-03T00:01:48.511Z,6.74
2018-02-03T00:02:48.506Z,6.74
2018-02-03T00:03:48.500Z,6.62
2018-02-03T00:04:48.492Z,6.67
2018-02-03T00:05:48.512Z,6.60
2018-02-03T00:06:48.484Z,6.66
2018-02-03T00:07:48.477Z,6.69
2018-02-03T00:08:48.479Z,6.63
2018-02-03T00:09:48.471Z,6.57
2018-02-03T00:10:48.460Z,6.57
2018-02-03T00:11:48.465Z,6.56
2018-02-03T00:12:48.473Z,6.59
2018-02-03T00:13:48.444Z,6.57
2018-02-03T00:14:48.436Z,6.59
2018-02-03T00:15:48.435Z,6.56
2018-02-03T00:16:48.424Z,6.54
2018-02-03T00:17:48.417Z,6.57
2018-02-03T00:18:48.416Z,6.57
2018-02-03T00:19:48.408Z,6.56
2018-02-03T00:20:48.402Z,6.59
2018-02-03T00:21:48.396Z,6.57
2018-02-03T00:22:48.389Z,6.56
2018-02-03T00:23:48.385Z,6.57
2018-02-03T00:24:48.377Z,6.63
2018-02-03T00:25:48.371Z,6.70
2018-02-03T00:26:48.370Z,6.69
2018-02-03T00:27:48.364Z,6.63
2018-02-03T00:28:48.355Z,6.64
2018-02-03T00:29:48.354Z,6.64
2018-02-03T00:30:48.358Z,6.63
2018-02-03T00:31:48.337Z,6.63
2018-02-03T00:32:48.677Z,6.63
2018-02-03T00:33:48.326Z,6.63
2018-02-03T00:34:48.319Z,6.79
2018-02-03T00:35:48.315Z,6.78
2018-02-03T00:36:48.308Z,6.66
2018-02-03T00:37:48.304Z,6.70
2018-02-03T00:38:48.299Z,6.67
2018-02-03T00:39:48.290Z,6.74
2018-02-03T00:40:48.292Z,6.67
2018-02-03T00:41:48.282Z,6.69
2018-02-03T00:42:48.275Z,6.75
2018-02-03T00:43:48.283Z,6.70
2018-02-03T00:44:48.263Z,6.72
2018-02-03T00:45:48.258Z,6.72
2018-02-03T00:46:48.251Z,6.78
2018-02-03T00:47:48.246Z,6.63
2018-02-03T00:48:48.239Z,6.66
2018-02-03T00:49:48.235Z,6.59
2018-02-03T00:50:48.230Z,6.62
2018-02-03T00:51:48.223Z,6.59
2018-02-03T00:52:48.220Z,6.60
2018-02-03T00:53:48.213Z,6.57
2018-02-03T00:54:48.250Z,6.60
2018-02-03T00:55:48.200Z,6.49
2018-02-03T00:56:48.195Z,6.44
2018-02-03T00:57:48.193Z,6.48
2018-02-03T00:58:48.183Z,6.44
2018-02-03T00:59:48.177Z,6.46
2018-02-03T01:00:48.173Z,6.39
2018-02-03T01:01:48.166Z,6.39
2018-02-03T01:02:48.161Z,6.38
2018-02-03T01:03:48.161Z,6.31
2018-02-03T01:04:48.148Z,6.39
2018-02-03T01:05:48.142Z,6.36
2018-02-03T01:06:48.138Z,6.26
2018-02-03T01:07:48.130Z,6.36
2018-02-03T01:08:48.125Z,6.28
2018-02-03T01:09:48.120Z,6.31
2018-02-03T01:10:48.113Z,6.35
2018-02-03T01:11:48.114Z,6.28
2018-02-03T01:12:48.101Z,6.28
2018-02-03T01:13:48.097Z,6.33
2018-02-03T01:14:48.089Z,6.35
2018-02-03T01:15:48.083Z,6.30
2018-02-03T01:16:48.081Z,6.27
2018-02-03T01:17:48.074Z,6.20
2018-02-03T01:18:48.066Z,6.30
2018-02-03T01:19:48.061Z,6.24
2018-02-03T01:20:48.060Z,6.17
2018-02-03T01:21:48.048Z,6.22
2018-02-03T01:22:48.045Z,6.17
2018-02-03T01:23:48.038Z,6.19
2018-02-03T01:24:48.030Z,6.20
2018-02-03T01:25:48.024Z,6.09
2018-02-03T01:26:48.019Z,6.22
2018-02-03T01:27:48.013Z,6.14
2018-02-03T01:28:48.007Z,6.17
2018-02-03T01:29:48.003Z,6.11
2018-02-03T01:30:47.995Z,6.14
2018-02-03T01:31:47.990Z,6.16
2018-02-03T01:32:47.987Z,6.19
2018-02-03T01:33:47.977Z,6.17
2018-02-03T01:34:48.295Z,6.22
2018-02-03T01:35:47.995Z,6.17
2018-02-03T01:36:47.959Z,6.16
2018-02-03T01:37:47.958Z,6.09
2018-02-03T01:38:47.950Z,6.16
2018-02-03T01:39:47.940Z,6.14
2018-02-03T01:40:47.935Z,6.17
2018-02-03T01:41:47.929Z,6.11
2018-02-03T01:42:47.926Z,6.19
2018-02-03T01:43:47.916Z,6.19
2018-02-03T01:44:47.915Z,6.14
2018-02-03T01:45:47.905Z,6.20
2018-02-03T01:46:47.900Z,6.17
2018-02-03T01:47:47.894Z,6.20
2018-02-03T01:48:47.886Z,6.05
2018-02-03T01:49:47.885Z,6.09
2018-02-03T01:50:47.876Z,6.02
2018-02-03T01:51:47.869Z,6.07
2018-02-03T01:52:47.869Z,6.08
2018-02-03T01:53:47.860Z,6.08
2018-02-03T01:54:47.853Z,6.04
2018-02-03T01:55:47.846Z,6.04
2018-02-03T01:56:47.840Z,6.01
2018-02-03T01:57:47.835Z,6.01
2018-02-03T01:58:47.833Z,6.05
2018-02-03T01:59:47.823Z,6.01
2018-02-03T02:00:47.817Z,6.01
2018-02-03T02:01:47.815Z,5.94
2018-02-03T02:02:48.738Z,5.99
2018-02-03T02:03:47.798Z,6.01
2018-02-03T02:04:47.805Z,5.98
2018-02-03T02:05:47.788Z,5.98
2018-02-03T02:06:47.785Z,5.94
2018-02-03T02:07:47.775Z,5.91
2018-02-03T02:08:47.770Z,5.97
2018-02-03T02:09:47.763Z,5.90
2018-02-03T02:10:47.759Z,5.94
2018-02-03T02:11:47.752Z,6.04
2018-02-03T02:12:47.747Z,5.99
2018-02-03T02:13:47.741Z,5.94
2018-02-03T02:14:47.738Z,6.02
2018-02-03T02:15:47.727Z,5.97
2018-02-03T02:16:47.722Z,6.04
2018-02-03T02:17:47.742Z,5.98
2018-02-03T02:18:47.716Z,6.01
2018-02-03T02:19:47.708Z,6.02
2018-02-03T02:20:47.701Z,5.99
2018-02-03T02:21:47.702Z,5.93
2018-02-03T02:22:47.717Z,5.94
2018-02-03T02:23:47.678Z,6.01
2018-02-03T02:24:47.859Z,5.89
2018-02-03T02:25:47.669Z,5.97
2018-02-03T02:26:47.757Z,5.99
2018-02-03T02:27:47.773Z,5.99
2018-02-03T02:28:47.687Z,5.93
2018-02-03T02:29:47.664Z,5.94
2018-02-03T02:30:47.652Z,5.97
2018-02-03T02:31:47.632Z,5.99
2018-02-03T02:32:47.624Z,5.91
2018-02-03T02:33:47.618Z,5.94
2018-02-03T02:34:47.611Z,5.93
2018-02-03T02:35:47.604Z,5.90
2018-02-03T02:36:47.601Z,5.90
2018-02-03T02:37:47.593Z,5.99
2018-02-03T02:38:47.590Z,5.93
2018-02-03T02:39:47.579Z,5.94
2018-02-03T02:40:47.578Z,5.97
2018-02-03T02:41:47.575Z,5.91
2018-02-03T02:42:47.564Z,5.97
2018-02-03T02:43:47.556Z,5.97
2018-02-03T02:44:47.550Z,5.98
2018-02-03T02:45:47.552Z,6.02
2018-02-03T02:46:47.538Z,5.99
2018-02-03T02:47:47.530Z,6.04
2018-02-03T02:48:47.523Z,5.90
2018-02-03T02:49:47.526Z,6.02
2018-02-03T02:50:47.512Z,5.99
2018-02-03T02:51:47.539Z,6.05
2018-02-03T02:52:47.498Z,6.09
2018-02-03T02:53:47.494Z,5.99
2018-02-03T02:54:47.489Z,6.08
2018-02-03T02:55:47.485Z,6.05
2018-02-03T02:56:47.490Z,6.02
2018-02-03T02:57:47.469Z,6.11
2018-02-03T02:58:47.464Z,6.09
2018-02-03T02:59:47.630Z,6.09
2018-02-03T03:00:47.449Z,6.19
2018-02-03T03:01:47.460Z,6.14
2018-02-03T03:02:47.451Z,6.12
2018-02-03T03:03:47.437Z,6.16
2018-02-03T03:04:47.430Z,6.30
2018-02-03T03:05:47.421Z,6.17
2018-02-03T03:06:47.414Z,6.08
2018-02-03T03:07:47.427Z,6.19
2018-02-03T03:08:47.400Z,6.20
2018-02-03T03:09:47.394Z,6.14
2018-02-03T03:10:47.389Z,6.16
2018-02-03T03:11:47.381Z,6.20
2018-02-03T03:12:47.376Z,6.17
2018-02-03T03:13:47.370Z,6.19
2018-02-03T03:14:47.364Z,6.22
2018-02-03T03:15:47.357Z,6.19
2018-02-03T03:16:47.350Z,6.19
2018-02-03T03:17:47.345Z,6.26
2018-02-03T03:18:47.341Z,6.24
2018-02-03T03:19:47.334Z,6.26
2018-02-03T03:20:47.331Z,6.22
2018-02-03T03:21:47.324Z,6.20
2018-02-03T03:22:47.314Z,6.24
2018-02-03T03:23:47.308Z,6.26
2018-02-03T03:24:47.303Z,6.27
2018-02-03T03:25:47.297Z,6.22
2018-02-03T03:26:47.297Z,6.26
2018-02-03T03:27:47.284Z,6.24
2018-02-03T03:28:47.290Z,6.24
2018-02-03T03:29:47.273Z,6.20
2018-02-03T03:30:47.270Z,6.17
2018-02-03T03:31:47.259Z,6.17
2018-02-03T03:32:47.253Z,6.14
2018-02-03T03:33:47.251Z,6.17
2018-02-03T03:34:47.249Z,6.20
2018-02-03T03:35:47.236Z,6.14
2018-02-03T03:36:47.231Z,6.17
2018-02-03T03:37:47.223Z,6.11
2018-02-03T03:38:47.218Z,6.05
2018-02-03T03:39:47.210Z,6.02
2018-02-03T03:40:47.204Z,6.09
2018-02-03T03:41:47.199Z,6.17
2018-02-03T03:42:47.196Z,6.09
2018-02-03T03:43:47.186Z,6.08
2018-02-03T03:44:47.180Z,6.20
2018-02-03T03:45:47.221Z,6.22
2018-02-03T03:46:47.168Z,6.19
2018-02-03T03:47:47.166Z,6.19
2018-02-03T03:48:47.158Z,6.20
2018-02-03T03:49:47.150Z,6.24
2018-02-03T03:50:47.143Z,6.24
2018-02-03T03:51:47.137Z,6.11
2018-02-03T03:52:47.130Z,6.19
2018-02-03T03:53:47.125Z,6.24
2018-02-03T03:54:47.119Z,6.19
2018-02-03T03:55:47.114Z,6.22
2018-02-03T03:56:47.108Z,6.17
2018-02-03T03:57:47.101Z,6.17
2018-02-03T03:58:47.094Z,6.12
2018-02-03T03:59:47.088Z,6.28
2018-02-03T04:00:47.083Z,6.17
2018-02-03T04:01:47.076Z,6.24
2018-02-03T04:02:48.366Z,6.28
2018-02-03T04:03:47.663Z,6.20
2018-02-03T04:04:47.648Z,6.26
2018-02-03T04:05:47.052Z,6.19
2018-02-03T04:06:47.047Z,6.24
2018-02-03T04:07:47.039Z,6.17
2018-02-03T04:08:47.034Z,6.19
2018-02-03T04:09:47.030Z,6.26
2018-02-03T04:10:47.023Z,6.28
2018-02-03T04:11:47.015Z,6.30
2018-02-03T04:12:47.011Z,6.31
2018-02-03T04:13:47.004Z,6.30
2018-02-03T04:14:47.001Z,6.33
2018-02-03T04:15:46.992Z,6.28
2018-02-03T04:16:46.986Z,6.28
2018-02-03T04:17:46.980Z,6.26
2018-02-03T04:18:46.974Z,6.26
2018-02-03T04:19:46.967Z,6.30
2018-02-03T04:20:46.961Z,6.33
2018-02-03T04:21:46.956Z,6.30
2018-02-03T04:22:46.953Z,6.26
2018-02-03T04:23:46.949Z,6.28
2018-02-03T04:24:46.939Z,6.31
2018-02-03T04:25:46.932Z,6.33
2018-02-03T04:26:46.926Z,6.31
2018-02-03T04:27:46.920Z,6.31
2018-02-03T04:28:46.955Z,6.41
2018-02-03T04:29:46.914Z,6.44
2018-02-03T04:30:46.907Z,6.45
2018-02-03T04:31:46.898Z,6.38
2018-02-03T04:32:46.898Z,6.36
2018-02-03T04:33:46.885Z,6.39
2018-02-03T04:34:46.879Z,6.38
2018-02-03T04:35:46.873Z,6.39
2018-02-03T04:36:46.868Z,6.41
2018-02-03T04:37:46.870Z,6.42
2018-02-03T04:38:46.858Z,6.42
2018-02-03T04:39:46.850Z,6.45
2018-02-03T04:40:46.846Z,6.41
2018-02-03T04:41:46.839Z,6.36
2018-02-03T04:42:46.834Z,6.38
2018-02-03T04:43:46.828Z,6.42
2018-02-03T04:44:46.822Z,6.45
2018-02-03T04:45:46.818Z,6.48
2018-02-03T04:46:46.812Z,6.46
2018-02-03T04:47:46.805Z,6.42
2018-02-03T04:48:46.799Z,6.39
2018-02-03T04:49:46.795Z,6.39
2018-02-03T04:50:46.789Z,6.27
2018-02-03T04:51:46.782Z,6.28
2018-02-03T04:52:46.778Z,6.30
2018-02-03T04:53:46.772Z,6.31
2018-02-03T04:54:46.769Z,6.28
2018-02-03T04:55:46.759Z,6.26
2018-02-03T04:56:47.642Z,6.26
2018-02-03T04:57:47.620Z,6.22
2018-02-03T04:58:47.638Z,6.26
2018-02-03T04:59:46.831Z,6.24
2018-02-03T05:00:46.840Z,6.22
2018-02-03T05:01:46.900Z,6.16
2018-02-03T05:02:46.721Z,6.35
2018-02-03T05:03:47.464Z,6.22
2018-02-03T05:04:47.623Z,6.19
2018-02-03T05:05:47.646Z,6.30
2018-02-03T05:06:47.686Z,6.28
2018-02-03T05:07:47.664Z,6.28
2018-02-03T05:08:47.665Z,6.38
2018-02-03T05:09:47.663Z,6.38
2018-02-03T05:10:46.674Z,6.42
2018-02-03T05:11:47.043Z,6.45
2018-02-03T05:12:46.665Z,6.36
2018-02-03T05:13:46.656Z,6.42
2018-02-03T05:14:46.653Z,6.49
2018-02-03T05:15:46.643Z,6.44
2018-02-03T05:16:46.640Z,6.45
2018-02-03T05:17:46.633Z,6.42
2018-02-03T05:18:46.629Z,6.38
2018-02-03T05:19:46.621Z,6.48
2018-02-03T05:20:46.618Z,6.54
2018-02-03T05:21:46.611Z,6.39
2018-02-03T05:22:46.605Z,6.49
2018-02-03T05:23:46.598Z,6.46
2018-02-03T05:24:46.605Z,6.35
2018-02-03T05:25:46.587Z,6.33
2018-02-03T05:26:46.582Z,6.33
2018-02-03T05:27:46.574Z,6.31
2018-02-03T05:28:46.579Z,6.38
2018-02-03T05:29:46.566Z,6.30
2018-02-03T05:30:46.558Z,6.30
2018-02-03T05:31:46.554Z,6.31
2018-02-03T05:32:46.546Z,6.16
2018-02-03T05:33:46.541Z,6.27
2018-02-03T05:34:46.536Z,6.19
2018-02-03T05:35:46.529Z,6.19
2018-02-03T05:36:46.525Z,6.14
2018-02-03T05:37:46.523Z,6.17
2018-02-03T05:38:46.512Z,6.17
2018-02-03T05:39:46.505Z,6.14
2018-02-03T05:40:46.500Z,6.19
2018-02-03T05:41:46.495Z,6.17
2018-02-03T05:42:46.489Z,6.09
2018-02-03T05:43:46.482Z,6.14
2018-02-03T05:44:46.476Z,6.17
2018-02-03T05:45:46.470Z,6.17
2018-02-03T05:46:46.467Z,6.16
2018-02-03T05:47:46.458Z,6.12
2018-02-03T05:48:46.456Z,6.20
2018-02-03T05:49:46.448Z,6.22
2018-02-03T05:50:46.440Z,6.04
2018-02-03T05:51:46.434Z,6.05
2018-02-03T05:52:46.431Z,6.08
2018-02-03T05:53:46.423Z,6.05
2018-02-03T05:54:46.418Z,6.04
2018-02-03T05:55:46.413Z,6.04
2018-02-03T05:56:46.405Z,6.02
2018-02-03T05:57:46.398Z,5.99
2018-02-03T05:58:46.392Z,5.99
2018-02-03T05:59:46.388Z,6.08
2018-02-03T06:00:46.381Z,6.02
2018-02-03T06:01:46.375Z,6.05
2018-02-03T06:02:47.872Z,6.08
2018-02-03T06:03:46.363Z,6.02
2018-02-03T06:04:46.392Z,6.02
2018-02-03T06:05:46.354Z,6.09
2018-02-03T06:06:46.345Z,6.12
2018-02-03T06:07:46.341Z,6.04
2018-02-03T06:08:46.333Z,6.07
2018-02-03T06:09:46.328Z,6.12
2018-02-03T06:10:46.321Z,6.07
2018-02-03T06:11:46.321Z,6.04
2018-02-03T06:12:46.310Z,6.17
2018-02-03T06:13:46.305Z,6.16
2018-02-03T06:14:46.300Z,6.11
2018-02-03T06:15:46.291Z,6.14
2018-02-03T06:16:46.286Z,6.26
2018-02-03T06:17:46.287Z,6.24
2018-02-03T06:18:46.275Z,6.28
2018-02-03T06:19:46.268Z,6.30
2018-02-03T06:20:46.262Z,6.16
2018-02-03T06:21:46.258Z,6.20
2018-02-03T06:22:46.250Z,6.20
2018-02-03T06:23:46.244Z,6.14
2018-02-03T06:24:46.238Z,6.17
2018-02-03T06:25:46.232Z,6.20
2018-02-03T06:26:46.227Z,6.14
2018-02-03T06:27:46.219Z,6.19
2018-02-03T06:28:46.214Z,6.17
2018-02-03T06:29:46.210Z,6.28
2018-02-03T06:30:46.203Z,6.14
2018-02-03T06:31:46.195Z,6.14
2018-02-03T06:32:46.198Z,6.14
2018-02-03T06:33:46.196Z,6.07
2018-02-03T06:34:46.179Z,6.04
2018-02-03T06:35:46.173Z,6.05
2018-02-03T06:36:46.170Z,6.04
2018-02-03T06:37:46.160Z,6.01
2018-02-03T06:38:46.168Z,5.99
2018-02-03T06:39:46.168Z,5.93
2018-02-03T06:40:46.142Z,6.02
2018-02-03T06:41:46.137Z,5.94
2018-02-03T06:42:46.137Z,5.99
2018-02-03T06:43:46.125Z,5.89
2018-02-03T06:44:46.126Z,5.90
2018-02-03T06:45:46.134Z,5.90
2018-02-03T06:46:46.106Z,5.94
2018-02-03T06:47:46.101Z,5.89
2018-02-03T06:48:46.095Z,5.90
2018-02-03T06:49:46.089Z,5.91
2018-02-03T06:50:46.082Z,6.01
2018-02-03T06:51:46.079Z,5.94
2018-02-03T06:52:46.070Z,6.01
2018-02-03T06:53:46.066Z,6.01
2018-02-03T06:54:46.059Z,5.93
2018-02-03T06:55:46.056Z,5.91
2018-02-03T06:56:46.045Z,5.93
2018-02-03T06:57:46.040Z,5.91
2018-02-03T06:58:46.034Z,5.87
2018-02-03T06:59:46.027Z,5.97
2018-02-03T07:00:46.023Z,5.99
2018-02-03T07:01:46.016Z,5.97
2018-02-03T07:02:46.033Z,5.84
2018-02-03T07:03:46.002Z,5.82
2018-02-03T07:04:46.001Z,5.73
2018-02-03T07:05:45.992Z,5.76
2018-02-03T07:06:45.986Z,5.80
2018-02-03T07:07:45.978Z,5.82
2018-02-03T07:08:45.978Z,5.79
2018-02-03T07:09:45.965Z,5.75
2018-02-03T07:10:46.232Z,5.84
2018-02-03T07:11:45.953Z,5.84
2018-02-03T07:12:45.947Z,5.80
2018-02-03T07:13:45.944Z,5.84
2018-02-03T07:14:45.937Z,5.86
2018-02-03T07:15:45.928Z,5.86
2018-02-03T07:16:45.922Z,5.87
2018-02-03T07:17:45.917Z,5.83
2018-02-03T07:18:45.913Z,5.89
2018-02-03T07:19:45.908Z,5.86
2018-02-03T07:20:45.898Z,5.86
2018-02-03T07:21:45.892Z,5.83
2018-02-03T07:22:45.886Z,5.80
2018-02-03T07:23:45.879Z,5.75
2018-02-03T07:24:45.874Z,5.82
2018-02-03T07:25:45.870Z,5.83
2018-02-03T07:26:45.886Z,5.86
2018-02-03T07:27:45.854Z,5.71
2018-02-03T07:28:45.850Z,5.75
2018-02-03T07:29:45.842Z,5.72
2018-02-03T07:30:45.839Z,5.79
2018-02-03T07:31:45.836Z,5.82
2018-02-03T07:32:45.824Z,5.75
2018-02-03T07:33:45.819Z,5.71
2018-02-03T07:34:46.063Z,5.76
2018-02-03T07:35:45.804Z,5.71
2018-02-03T07:36:45.799Z,5.66
2018-02-03T07:37:45.792Z,5.69
2018-02-03T07:38:45.797Z,5.66
2018-02-03T07:39:45.781Z,5.69
2018-02-03T07:40:45.785Z,5.66
2018-02-03T07:41:45.771Z,5.73
2018-02-03T07:42:45.766Z,5.59
2018-02-03T07:43:45.755Z,5.65
2018-02-03T07:44:45.758Z,5.59
2018-02-03T07:45:45.743Z,5.57
2018-02-03T07:46:45.738Z,5.61
2018-02-03T07:47:45.732Z,5.66
2018-02-03T07:48:45.725Z,5.61
2018-02-03T07:49:45.719Z,5.69
2018-02-03T07:50:45.712Z,5.66
2018-02-03T07:51:45.705Z,5.59
2018-02-03T07:52:45.698Z,5.73
2018-02-03T07:53:45.694Z,5.66
2018-02-03T07:54:45.688Z,5.66
2018-02-03T07:55:45.684Z,5.57
2018-02-03T07:56:45.673Z,5.57
2018-02-03T07:57:45.673Z,5.64
2018-02-03T07:58:45.661Z,5.62
2018-02-03T07:59:45.655Z,5.59
2018-02-03T08:00:45.901Z,5.68
2018-02-03T08:01:45.650Z,5.69
2018-02-03T08:02:45.647Z,5.73
2018-02-03T08:03:45.633Z,5.71
2018-02-03T08:04:45.636Z,5.79
2018-02-03T08:05:45.619Z,5.66
2018-02-03T08:06:45.614Z,5.75
2018-02-03T08:07:45.617Z,5.66
2018-02-03T08:08:45.605Z,5.66
2018-02-03T08:09:45.609Z,5.75
2018-02-03T08:10:45.591Z,5.79
2018-02-03T08:11:45.580Z,5.82
2018-02-03T08:12:45.575Z,5.73
2018-02-03T08:13:45.568Z,5.84
2018-02-03T08:14:45.566Z,5.86
2018-02-03T08:15:45.555Z,5.84
2018-02-03T08:16:45.551Z,5.84
2018-02-03T08:17:45.553Z,5.84
2018-02-03T08:18:45.552Z,5.98
2018-02-03T08:19:45.538Z,5.94
2018-02-03T08:20:45.525Z,5.99
2018-02-03T08:21:45.520Z,5.94
2018-02-03T08:22:45.515Z,6.04
2018-02-03T08:23:45.506Z,5.91
2018-02-03T08:24:45.506Z,6.09
2018-02-03T08:25:45.502Z,5.97
2018-02-03T08:26:45.490Z,6.04
2018-02-03T08:27:45.483Z,6.04
2018-02-03T08:28:45.477Z,6.04
2018-02-03T08:29:45.482Z,6.02
2018-02-03T08:30:45.464Z,6.01
2018-02-03T08:31:45.456Z,6.07
2018-02-03T08:32:45.451Z,5.91
2018-02-03T08:33:45.448Z,6.04
2018-02-03T08:34:45.445Z,6.05
2018-02-03T08:35:45.432Z,6.02
2018-02-03T08:36:45.428Z,5.97
2018-02-03T08:37:45.427Z,6.05
2018-02-03T08:38:45.415Z,5.99
2018-02-03T08:39:45.409Z,6.16
2018-02-03T08:40:45.405Z,6.07
2018-02-03T08:41:45.395Z,6.17
2018-02-03T08:42:45.391Z,6.22
2018-02-03T08:43:45.388Z,6.19
2018-02-03T08:44:45.387Z,6.27
2018-02-03T08:45:45.410Z,6.16
2018-02-03T08:46:45.367Z,6.08
2018-02-03T08:47:45.361Z,6.08
2018-02-03T08:48:45.357Z,6.17
2018-02-03T08:49:45.357Z,6.19
2018-02-03T08:50:45.345Z,6.22
2018-02-03T08:51:45.336Z,6.12
2018-02-03T08:52:45.329Z,6.17
2018-02-03T08:53:45.325Z,6.14
2018-02-03T08:54:45.320Z,6.14
2018-02-03T08:55:45.312Z,6.19
2018-02-03T08:56:45.308Z,6.16
2018-02-03T08:57:45.300Z,6.27
2018-02-03T08:58:45.294Z,6.27
2018-02-03T08:59:45.287Z,6.26
2018-02-03T09:00:45.283Z,6.30
2018-02-03T09:01:45.276Z,6.42
2018-02-03T09:02:45.271Z,6.41
2018-02-03T09:03:45.265Z,6.51
2018-02-03T09:04:45.259Z,6.48
2018-02-03T09:05:45.256Z,6.36
2018-02-03T09:06:45.248Z,6.46
2018-02-03T09:07:45.245Z,6.38
2018-02-03T09:08:45.237Z,6.56
2018-02-03T09:09:45.231Z,6.39
2018-02-03T09:10:45.224Z,6.46
2018-02-03T09:11:45.218Z,6.42
2018-02-03T09:12:45.245Z,6.33
2018-02-03T09:13:45.206Z,6.33
2018-02-03T09:14:45.202Z,6.33
2018-02-03T09:15:45.196Z,6.28
2018-02-03T09:16:45.196Z,6.31
2018-02-03T09:17:45.187Z,6.31
2018-02-03T09:18:45.180Z,6.30
2018-02-03T09:19:45.175Z,6.39
2018-02-03T09:20:45.218Z,6.38
2018-02-03T09:21:45.168Z,6.39
2018-02-03T09:22:45.157Z,6.42
2018-02-03T09:23:45.148Z,6.39
2018-02-03T09:24:45.145Z,6.41
2018-02-03T09:25:45.190Z,6.33
2018-02-03T09:26:45.141Z,6.33
2018-02-03T09:27:45.125Z,6.39
2018-02-03T09:28:45.121Z,6.39
2018-02-03T09:29:45.114Z,6.45
2018-02-03T09:30:45.116Z,6.42
2018-02-03T09:31:45.107Z,6.41
2018-02-03T09:32:45.102Z,6.26
2018-02-03T09:33:45.099Z,6.33
2018-02-03T09:34:45.087Z,6.30
2018-02-03T09:35:45.082Z,6.31
2018-02-03T09:36:45.075Z,6.30
2018-02-03T09:37:45.077Z,6.26
2018-02-03T09:38:45.065Z,6.20
2018-02-03T09:39:45.057Z,6.17
2018-02-03T09:40:45.050Z,6.07
2018-02-03T09:41:45.050Z,6.14
2018-02-03T09:42:45.040Z,6.16
2018-02-03T09:43:45.899Z,6.02
2018-02-03T09:44:45.028Z,6.07
2018-02-03T09:45:45.023Z,6.04
2018-02-03T09:46:45.018Z,6.12
2018-02-03T09:47:45.016Z,6.02
2018-02-03T09:48:45.005Z,5.90
2018-02-03T09:49:45.177Z,5.99
2018-02-03T09:50:44.994Z,5.93
2018-02-03T09:51:44.992Z,6.07
2018-02-03T09:52:44.978Z,6.05
2018-02-03T09:53:45.109Z,6.01
2018-02-03T09:54:44.966Z,6.02
2018-02-03T09:55:44.961Z,5.84
2018-02-03T09:56:44.954Z,5.90
2018-02-03T09:57:44.949Z,5.84
2018-02-03T09:58:44.942Z,5.91
2018-02-03T09:59:44.935Z,5.94
2018-02-03T10:00:44.933Z,5.91
2018-02-03T10:01:44.952Z,6.02
2018-02-03T10:02:44.927Z,6.05
2018-02-03T10:03:44.910Z,6.17
2018-02-03T10:04:44.908Z,6.16
2018-02-03T10:05:44.900Z,6.19
2018-02-03T10:06:44.894Z,6.22
2018-02-03T10:07:44.892Z,6.31
2018-02-03T10:08:44.885Z,6.31
2018-02-03T10:09:44.879Z,6.22
2018-02-03T10:10:44.869Z,6.26
2018-02-03T10:11:44.863Z,6.33
2018-02-03T10:12:44.858Z,6.28
2018-02-03T10:13:44.866Z,6.28
2018-02-03T10:14:44.847Z,6.38
2018-02-03T10:15:44.853Z,6.45
2018-02-03T10:16:44.837Z,6.39
2018-02-03T10:17:44.831Z,6.41
2018-02-03T10:18:44.822Z,6.52
2018-02-03T10:19:44.820Z,6.48
2018-02-03T10:20:44.868Z,6.56
2018-02-03T10:21:44.807Z,6.62
2018-02-03T10:22:44.802Z,6.60
2018-02-03T10:23:44.793Z,6.59
2018-02-03T10:24:44.790Z,6.63
2018-02-03T10:25:44.783Z,6.69
2018-02-03T10:26:44.779Z,6.69
2018-02-03T10:27:44.773Z,6.64
2018-02-03T10:28:44.765Z,6.70
2018-02-03T10:29:44.767Z,6.74
2018-02-03T10:30:44.757Z,6.81
2018-02-03T10:31:44.750Z,6.81
2018-02-03T10:32:44.743Z,6.81
2018-02-03T10:33:44.739Z,6.87
2018-02-03T10:34:44.733Z,6.93
2018-02-03T10:35:44.730Z,6.87
2018-02-03T10:36:44.739Z,6.88
2018-02-03T10:37:44.715Z,7.00
2018-02-03T10:38:44.711Z,7.00
2018-02-03T10:39:44.706Z,7.06
2018-02-03T10:40:44.699Z,7.05
2018-02-03T10:41:44.695Z,7.05
2018-02-03T10:42:44.689Z,7.06
2018-02-03T10:43:44.687Z,7.05
2018-02-03T10:44:44.678Z,7.07
2018-02-03T10:45:44.673Z,7.07
2018-02-03T10:46:44.668Z,7.03
2018-02-03T10:47:44.663Z,6.99
2018-02-03T10:48:44.658Z,6.99
2018-02-03T10:49:44.654Z,6.95
2018-02-03T10:50:44.648Z,6.92
2018-02-03T10:51:44.673Z,6.89
2018-02-03T10:52:44.637Z,6.96
2018-02-03T10:53:44.630Z,6.89
2018-02-03T10:54:44.626Z,6.88
2018-02-03T10:55:44.623Z,6.85
2018-02-03T10:56:44.615Z,6.92
2018-02-03T10:57:44.620Z,6.96
2018-02-03T10:58:44.605Z,6.88
2018-02-03T10:59:44.600Z,6.87
2018-02-03T11:00:44.593Z,6.85
2018-02-03T11:01:44.591Z,6.93
2018-02-03T11:02:44.586Z,6.93
2018-02-03T11:03:44.577Z,6.99
2018-02-03T11:04:44.574Z,7.00
2018-02-03T11:05:44.567Z,7.03
2018-02-03T11:06:44.575Z,7.11
2018-02-03T11:07:44.571Z,7.06
2018-02-03T11:08:44.550Z,7.02
2018-02-03T11:09:44.547Z,7.13
2018-02-03T11:10:44.545Z,7.00
2018-02-03T11:11:44.538Z,7.03
2018-02-03T11:12:44.530Z,7.00
2018-02-03T11:13:45.202Z,7.11
2018-02-03T11:14:45.266Z,7.02
2018-02-03T11:15:44.516Z,7.24
2018-02-03T11:16:44.508Z,7.20
2018-02-03T11:17:45.866Z,7.23
2018-02-03T11:18:46.328Z,7.24
2018-02-03T11:19:45.276Z,7.29
2018-02-03T11:20:44.765Z,7.21
2018-02-03T11:21:45.751Z,7.18
2018-02-03T11:22:46.196Z,7.25
2018-02-03T11:23:46.166Z,7.29
2018-02-03T11:24:44.597Z,7.17
2018-02-03T11:25:44.465Z,7.24
2018-02-03T11:26:44.552Z,7.17
2018-02-03T11:27:44.506Z,7.11
2018-02-03T11:28:44.447Z,7.11
2018-02-03T11:29:44.442Z,7.06
2018-02-03T11:30:44.446Z,7.06
2018-02-03T11:31:44.438Z,7.02
2018-02-03T11:32:44.428Z,7.03
2018-02-03T11:33:44.438Z,7.05
2018-02-03T11:34:44.418Z,7.05
2018-02-03T11:35:44.413Z,7.02
2018-02-03T11:36:44.409Z,7.03
2018-02-03T11:37:44.438Z,7.05
2018-02-03T11:38:44.402Z,7.13
2018-02-03T11:39:44.394Z,7.06
2018-02-03T11:40:44.387Z,7.07
2018-02-03T11:41:44.386Z,7.00
2018-02-03T11:42:44.386Z,7.06
2018-02-03T11:43:44.371Z,7.10
2018-02-03T11:44:44.367Z,7.15
2018-02-03T11:45:44.362Z,7.10
2018-02-03T11:46:44.372Z,7.07
2018-02-03T11:47:44.360Z,6.97
2018-02-03T11:48:44.390Z,6.87
2018-02-03T11:49:44.345Z,6.93
2018-02-03T11:50:44.335Z,6.96
2018-02-03T11:51:44.332Z,6.79
2018-02-03T11:52:44.378Z,6.67
2018-02-03T11:53:44.333Z,6.72
2018-02-03T11:54:44.313Z,6.52
2018-02-03T11:55:44.308Z,6.60
2018-02-03T11:56:44.301Z,6.57
2018-02-03T11:57:44.300Z,6.60
2018-02-03T11:58:44.296Z,6.54
2018-02-03T11:59:44.289Z,6.49
2018-02-03T12:00:44.282Z,6.39
2018-02-03T12:01:44.274Z,6.41
2018-02-03T12:02:44.272Z,6.46
2018-02-03T12:03:44.408Z,6.46
2018-02-03T12:04:44.296Z,6.56
2018-02-03T12:05:44.252Z,6.51
2018-02-03T12:06:44.247Z,6.46
2018-02-03T12:07:44.296Z,6.49
2018-02-03T12:08:44.234Z,6.38
2018-02-03T12:09:44.229Z,6.36
2018-02-03T12:10:44.223Z,6.19
2018-02-03T12:11:44.220Z,5.93
2018-02-03T12:12:44.211Z,5.73
2018-02-03T12:13:44.206Z,5.66
2018-02-03T12:14:44.201Z,5.59
2018-02-03T12:15:44.218Z,5.65
2018-02-03T12:16:44.186Z,5.57
2018-02-03T12:17:44.193Z,5.69
2018-02-03T12:18:44.180Z,5.75
2018-02-03T12:19:44.169Z,5.82
2018-02-03T12:20:44.165Z,5.75
2018-02-03T12:21:44.164Z,5.72
2018-02-03T12:22:44.153Z,5.73
2018-02-03T12:23:44.147Z,5.69
2018-02-03T12:24:44.141Z,5.56
2018-02-03T12:25:44.134Z,5.65
2018-02-03T12:26:44.126Z,5.57
2018-02-03T12:27:44.124Z,5.59
2018-02-03T12:28:44.113Z,5.54
2018-02-03T12:29:44.128Z,5.51
2018-02-03T12:30:44.100Z,5.51
2018-02-03T12:31:44.097Z,5.50
2018-02-03T12:32:44.087Z,5.69
2018-02-03T12:33:44.082Z,5.66
2018-02-03T12:34:44.076Z,5.75
2018-02-03T12:35:44.071Z,5.73
2018-02-03T12:36:44.075Z,5.80
2018-02-03T12:37:44.064Z,5.84
2018-02-03T12:38:44.052Z,5.89
2018-02-03T12:39:44.043Z,5.91
2018-02-03T12:40:45.306Z,5.82
2018-02-03T12:41:44.038Z,5.93
2018-02-03T12:42:44.074Z,5.86
2018-02-03T12:43:44.018Z,5.99
2018-02-03T12:44:44.069Z,5.91
2018-02-03T12:45:44.008Z,5.90
2018-02-03T12:46:44.000Z,5.79
2018-02-03T12:47:43.993Z,5.89
2018-02-03T12:48:43.988Z,5.87
2018-02-03T12:49:44.017Z,5.87
2018-02-03T12:50:44.003Z,5.99
2018-02-03T12:51:44.025Z,5.99
2018-02-03T12:52:43.993Z,6.05
2018-02-03T12:53:43.999Z,6.04
2018-02-03T12:54:44.013Z,5.99
2018-02-03T12:55:43.954Z,6.16
2018-02-03T12:56:43.988Z,6.17
2018-02-03T12:57:43.948Z,6.16
2018-02-03T12:58:43.991Z,6.12
2018-02-03T12:59:44.189Z,6.11
2018-02-03T13:00:43.914Z,6.19
2018-02-03T13:01:43.915Z,6.20
2018-02-03T13:02:43.902Z,6.26
2018-02-03T13:03:43.904Z,6.30
2018-02-03T13:04:43.890Z,6.28
2018-02-03T13:05:43.886Z,6.33
2018-02-03T13:06:43.884Z,6.33
2018-02-03T13:07:43.871Z,6.27
2018-02-03T13:08:43.869Z,6.28
2018-02-03T13:09:43.863Z,6.35
2018-02-03T13:10:43.860Z,6.35
2018-02-03T13:11:43.851Z,6.31
2018-02-03T13:12:43.845Z,6.38
2018-02-03T13:13:43.838Z,6.38
2018-02-03T13:14:43.837Z,6.36
2018-02-03T13:15:43.829Z,6.46
2018-02-03T13:16:43.822Z,6.35
2018-02-03T13:17:43.817Z,6.28
2018-02-03T13:18:43.810Z,6.19